sensor_id;sensor_type;location;lat;lon;timestamp;P1;durP1;ratioP1;P2;durP2;ratioP2
20161;SDS011;51382;53.180;15.414;2023-07-13T00:12:01;40.00;;;5.30;;
20161;SDS011;51382;53.180;15.414;2023-07-13T00:27:14;32.10;;;4.70;;
20161;SDS011;51382;53.180;15.414;2023-07-13T00:42:25;33.40;;;4.40;;
20161;SDS011;51382;53.180;15.414;2023-07-13T00:57:31;33.30;;;4.20;;
20161;SDS011;51382;53.180;15.414;2023-07-13T01:12:45;54.80;;;7.00;;
20161;SDS011;51382;53.180;15.414;2023-07-13T01:27:56;50.60;;;6.80;;
20161;SDS011;51382;53.180;15.414;2023-07-13T01:43:08;56.80;;;9.20;;
20161;SDS011;51382;53.180;15.414;2023-07-13T01:58:20;102.10;;;61.30;;
20161;SDS011;51382;53.180;15.414;2023-07-13T02:13:31;101.00;;;61.40;;
20161;SDS011;51382;53.180;15.414;2023-07-13T02:28:43;79.60;;;30.70;;
20161;SDS011;51382;53.180;15.414;2023-07-13T02:43:57;118.10;;;56.40;;
20161;SDS011;51382;53.180;15.414;2023-07-13T02:59:13;73.10;;;14.30;;
20161;SDS011;51382;53.180;15.414;2023-07-13T03:14:25;60.20;;;10.20;;
20161;SDS011;51382;53.180;15.414;2023-07-13T03:29:37;63.00;;;17.20;;
20161;SDS011;51382;53.180;15.414;2023-07-13T03:44:49;33.10;;;6.00;;
20161;SDS011;51382;53.180;15.414;2023-07-13T04:00:02;54.80;;;7.80;;
20161;SDS011;51382;53.180;15.414;2023-07-13T04:15:19;58.20;;;7.90;;
20161;SDS011;51382;53.180;15.414;2023-07-13T04:30:31;51.80;;;7.90;;
20161;SDS011;51382;53.180;15.414;2023-07-13T04:45:42;47.30;;;9.40;;
20161;SDS011;51382;53.180;15.414;2023-07-13T05:00:54;46.40;;;7.50;;
20161;SDS011;51382;53.180;15.414;2023-07-13T05:16:10;52.80;;;6.90;;
20161;SDS011;51382;53.180;15.414;2023-07-13T05:31:21;52.70;;;6.10;;
20161;SDS011;51382;53.180;15.414;2023-07-13T05:46:27;36.70;;;4.30;;
20161;SDS011;51382;53.180;15.414;2023-07-13T06:01:38;42.30;;;4.90;;
20161;SDS011;51382;53.180;15.414;2023-07-13T06:16:50;31.40;;;3.70;;
20161;SDS011;51382;53.180;15.414;2023-07-13T06:32:01;35.80;;;4.20;;
20161;SDS011;51382;53.180;15.414;2023-07-13T06:47:12;35.50;;;4.20;;
20161;SDS011;51382;53.180;15.414;2023-07-13T07:02:24;49.20;;;5.40;;
20161;SDS011;51382;53.180;15.414;2023-07-13T07:17:35;49.10;;;5.60;;
20161;SDS011;51382;53.180;15.414;2023-07-13T07:32:47;49.80;;;5.70;;
20161;SDS011;51382;53.180;15.414;2023-07-13T07:47:58;40.70;;;5.10;;
20161;SDS011;51382;53.180;15.414;2023-07-13T08:03:10;32.30;;;3.90;;
20161;SDS011;51382;53.180;15.414;2023-07-13T08:18:22;28.60;;;3.80;;
20161;SDS011;51382;53.180;15.414;2023-07-13T08:33:33;54.00;;;6.60;;
20161;SDS011;51382;53.180;15.414;2023-07-13T08:48:48;53.80;;;6.60;;
20161;SDS011;51382;53.180;15.414;2023-07-13T09:04:07;42.20;;;5.10;;
20161;SDS011;51382;53.180;15.414;2023-07-13T09:19:23;38.20;;;5.00;;
20161;SDS011;51382;53.180;15.414;2023-07-13T09:34:35;49.20;;;9.70;;
20161;SDS011;51382;53.180;15.414;2023-07-13T09:49:47;69.70;;;7.10;;
20161;SDS011;51382;53.180;15.414;2023-07-13T10:04:59;106.10;;;11.30;;
20161;SDS011;51382;53.180;15.414;2023-07-13T10:20:11;51.20;;;5.80;;
20161;SDS011;51382;53.180;15.414;2023-07-13T10:35:23;36.00;;;4.60;;
20161;SDS011;51382;53.180;15.414;2023-07-13T10:50:36;45.70;;;5.90;;
20161;SDS011;51382;53.180;15.414;2023-07-13T11:06:07;45.20;;;5.90;;
20161;SDS011;51382;53.180;15.414;2023-07-13T11:21:20;42.90;;;7.90;;
20161;SDS011;51382;53.180;15.414;2023-07-13T11:36:42;34.40;;;5.20;;
20161;SDS011;51382;53.180;15.414;2023-07-13T11:51:54;46.20;;;6.40;;
20161;SDS011;51382;53.180;15.414;2023-07-13T12:07:17;44.30;;;6.10;;
20161;SDS011;51382;53.180;15.414;2023-07-13T12:22:29;77.80;;;36.30;;
20161;SDS011;51382;53.180;15.414;2023-07-13T12:37:43;94.80;;;49.40;;
20161;SDS011;51382;53.180;15.414;2023-07-13T12:52:56;123.10;;;76.00;;
20161;SDS011;51382;53.180;15.414;2023-07-13T13:08:12;708.80;;;644.60;;
20161;SDS011;51382;53.180;15.414;2023-07-13T13:23:23;1013.20;;;934.30;;
20161;SDS011;51382;53.180;15.414;2023-07-13T13:38:35;1297.30;;;999.90;;
20161;SDS011;51382;53.180;15.414;2023-07-13T13:53:46;1294.10;;;999.90;;
20161;SDS011;51382;53.180;15.414;2023-07-13T14:08:58;413.90;;;371.00;;
20161;SDS011;51382;53.180;15.414;2023-07-13T14:24:09;382.70;;;341.90;;
20161;SDS011;51382;53.180;15.414;2023-07-13T14:39:22;345.40;;;307.90;;
20161;SDS011;51382;53.180;15.414;2023-07-13T14:54:34;584.30;;;528.00;;
20161;SDS011;51382;53.180;15.414;2023-07-13T15:09:45;994.20;;;915.50;;
20161;SDS011;51382;53.180;15.414;2023-07-13T15:24:57;181.20;;;116.40;;
20161;SDS011;51382;53.180;15.414;2023-07-13T15:40:12;331.00;;;241.20;;
20161;SDS011;51382;53.180;15.414;2023-07-13T15:55:24;447.20;;;399.40;;
20161;SDS011;51382;53.180;15.414;2023-07-13T16:10:37;224.20;;;150.90;;
20161;SDS011;51382;53.180;15.414;2023-07-13T16:25:51;258.80;;;174.00;;
20161;SDS011;51382;53.180;15.414;2023-07-13T16:41:03;247.00;;;163.10;;
20161;SDS011;51382;53.180;15.414;2023-07-13T16:56:20;55.60;;;29.00;;
20161;SDS011;51382;53.180;15.414;2023-07-13T17:11:31;78.00;;;36.80;;
20161;SDS011;51382;53.180;15.414;2023-07-13T17:26:45;74.70;;;38.00;;
20161;SDS011;51382;53.180;15.414;2023-07-13T17:41:57;117.10;;;55.10;;
20161;SDS011;51382;53.180;15.414;2023-07-13T17:57:09;73.30;;;38.70;;
20161;SDS011;51382;53.180;15.414;2023-07-13T18:12:20;54.40;;;30.20;;
20161;SDS011;51382;53.180;15.414;2023-07-13T18:27:31;47.00;;;21.30;;
20161;SDS011;51382;53.180;15.414;2023-07-13T18:42:46;48.10;;;13.40;;
20161;SDS011;51382;53.180;15.414;2023-07-13T18:58:03;39.80;;;7.80;;
20161;SDS011;51382;53.180;15.414;2023-07-13T19:13:18;25.10;;;4.10;;
20161;SDS011;51382;53.180;15.414;2023-07-13T19:28:37;18.00;;;3.70;;
20161;SDS011;51382;53.180;15.414;2023-07-13T19:43:50;28.10;;;4.80;;
20161;SDS011;51382;53.180;15.414;2023-07-13T19:59:04;15.10;;;3.80;;
20161;SDS011;51382;53.180;15.414;2023-07-13T20:14:22;18.30;;;3.90;;
20161;SDS011;51382;53.180;15.414;2023-07-13T20:29:34;16.20;;;4.10;;
20161;SDS011;51382;53.180;15.414;2023-07-13T20:44:48;85.50;;;15.50;;
20161;SDS011;51382;53.180;15.414;2023-07-13T21:00:00;19.50;;;5.10;;
20161;SDS011;51382;53.180;15.414;2023-07-13T21:15:14;24.10;;;5.50;;
20161;SDS011;51382;53.180;15.414;2023-07-13T21:30:30;14.20;;;3.90;;
20161;SDS011;51382;53.180;15.414;2023-07-13T21:45:43;10.40;;;3.20;;
20161;SDS011;51382;53.180;15.414;2023-07-13T22:00:54;12.10;;;4.30;;
20161;SDS011;51382;53.180;15.414;2023-07-13T22:16:08;12.10;;;3.60;;
20161;SDS011;51382;53.180;15.414;2023-07-13T22:31:23;15.50;;;4.50;;
20161;SDS011;51382;53.180;15.414;2023-07-13T22:46:35;13.70;;;3.70;;
20161;SDS011;51382;53.180;15.414;2023-07-13T23:01:47;18.90;;;4.00;;
20161;SDS011;51382;53.180;15.414;2023-07-13T23:16:59;8.60;;;2.60;;
20161;SDS011;51382;53.180;15.414;2023-07-13T23:32:12;13.30;;;4.10;;
20161;SDS011;51382;53.180;15.414;2023-07-13T23:47:23;12.70;;;3.50;;
